Time;durP1;ratioP1;P1;durP2;ratioP2;P2;SDS_P1;SDS_P2;PMS_P1;PMS_P2;Temp;Humidity;BMP_temperature;BMP_pressure;BME280_temperature;BME280_humidity;BME280_pressure;Samples;Min_cycle;Max_cycle;Signal;HPM_P1;HPM_P2
2023/02/28 00:00:35;;;;;;;6.18;2.50;;;;;;;-143.48;75.20;118439.88;5115137;28;20089;-70
2023/02/28 00:03:01;;;;;;;7.60;2.30;;;;;;;-143.48;75.04;118439.88;5096857;28;20028;-70
2023/02/28 00:05:28;;;;;;;6.90;2.00;;;;;;;-143.48;75.08;118439.88;5114766;28;20135;-69
2023/02/28 00:07:54;;;;;;;5.65;2.30;;;;;;;-143.48;75.56;118439.88;5115086;28;20028;-70
2023/02/28 00:10:31;;;;;;;4.57;2.08;;;;;;;-143.48;76.12;118439.88;5096981;28;20064;-71
2023/02/28 00:13:04;;;;;;;5.05;2.10;;;;;;;-143.48;75.25;118439.88;5115368;28;20513;-70
2023/02/28 00:15:30;;;;;;;5.47;2.20;;;;;;;-143.48;74.49;118439.88;5114196;28;20455;-70
2023/02/28 00:17:56;;;;;;;5.05;1.95;;;;;;;-143.48;74.70;118439.88;5115004;28;20107;-71
2023/02/28 00:20:21;;;;;;;5.70;2.05;;;;;;;-143.48;74.48;118439.88;5097082;28;20055;-69
2023/02/28 00:22:49;;;;;;;6.75;2.08;;;;;;;-143.48;74.42;118439.88;5115909;28;20027;-70
2023/02/28 00:25:18;;;;;;;5.45;2.00;;;;;;;-143.48;73.74;118439.88;5116138;28;20030;-71
2023/02/28 00:27:44;;;;;;;6.70;1.88;;;;;;;-143.48;72.79;118439.88;5116440;28;20051;-70
2023/02/28 00:30:15;;;;;;;4.90;1.80;;;;;;;-143.48;73.29;118439.88;5098331;28;20072;-70
2023/02/28 00:32:41;;;;;;;5.82;1.90;;;;;;;-143.48;73.53;118439.88;5116361;28;20027;-70
2023/02/28 00:35:07;;;;;;;7.32;1.88;;;;;;;-143.48;73.86;118439.88;5117105;28;20431;-70
2023/02/28 00:37:33;;;;;;;6.95;2.00;;;;;;;-143.48;72.85;118439.88;5099146;28;20520;-69
2023/02/28 00:39:59;;;;;;;7.28;2.00;;;;;;;-143.48;72.85;118439.88;5100249;28;20020;-70
2023/02/28 00:42:25;;;;;;;8.25;1.70;;;;;;;-143.48;73.44;118439.88;5123920;28;20047;-70
2023/02/28 00:44:50;;;;;;;4.25;2.17;;;;;;;-143.48;73.98;118439.88;5132584;28;20487;-70
2023/02/28 00:47:16;;;;;;;8.35;2.28;;;;;;;-143.48;73.40;118439.88;5134673;28;20111;-71
2023/02/28 00:49:41;;;;;;;5.50;2.00;;;;;;;-143.48;72.95;118439.88;5135679;28;20061;-71
2023/02/28 00:52:06;;;;;;;4.57;1.90;;;;;;;-143.48;73.35;118439.88;5135621;28;20038;-71
2023/02/28 00:54:31;;;;;;;6.03;1.95;;;;;;;-143.48;73.60;118439.88;5136131;28;20084;-71
2023/02/28 00:56:57;;;;;;;8.85;2.30;;;;;;;-143.48;73.11;118439.88;5135820;28;20057;-71
2023/02/28 00:59:22;;;;;;;4.57;2.60;;;;;;;-143.48;72.79;118439.88;5137234;28;20008;-70
2023/02/28 01:01:48;;;;;;;6.93;2.80;;;;;;;-143.48;73.00;118439.88;5119552;28;20011;-70
2023/02/28 01:04:14;;;;;;;8.88;2.80;;;;;;;-143.48;73.50;118439.88;5137186;28;20073;-71
2023/02/28 01:06:40;;;;;;;5.50;2.40;;;;;;;-143.48;73.12;118439.88;5137573;28;20059;-70
2023/02/28 01:09:06;;;;;;;7.80;2.60;;;;;;;-143.48;73.43;118439.88;5136643;28;20028;-69
2023/02/28 01:11:32;;;;;;;6.35;2.55;;;;;;;-143.48;73.62;118439.88;5137016;28;20051;-71
2023/02/28 01:13:58;;;;;;;4.72;2.40;;;;;;;-143.48;73.42;118439.88;5119381;28;20023;-70
2023/02/28 01:16:23;;;;;;;6.20;2.47;;;;;;;-143.48;73.82;118439.88;5136867;28;20024;-71
2023/02/28 01:18:49;;;;;;;3.72;2.20;;;;;;;-143.48;73.59;118439.88;5118537;28;20036;-72
2023/02/28 01:21:16;;;;;;;5.68;2.30;;;;;;;-143.48;73.92;118439.88;5118599;28;20083;-70
2023/02/28 01:23:42;;;;;;;6.85;2.22;;;;;;;-143.48;73.80;118439.88;5123093;28;20437;-71
2023/02/28 01:26:13;;;;;;;6.18;2.35;;;;;;;-143.48;73.82;118439.88;5121974;28;20058;-70
2023/02/28 01:28:39;;;;;;;4.80;2.22;;;;;;;-143.48;74.86;118439.88;5123413;28;20023;-71
2023/02/28 01:31:05;;;;;;;5.57;2.38;;;;;;;-143.48;74.33;118439.88;5122723;28;20030;-69
2023/02/28 01:33:30;;;;;;;5.38;2.30;;;;;;;-143.48;74.59;118439.88;5122042;28;20019;-69
2023/02/28 01:36:04;;;;;;;4.82;2.15;;;;;;;-143.48;74.55;118439.88;5120493;28;20447;-70
2023/02/28 01:38:29;;;;;;;6.63;2.40;;;;;;;-143.48;74.53;118439.88;5120580;28;20047;-69
2023/02/28 01:40:54;;;;;;;3.85;2.22;;;;;;;-143.48;74.86;118439.88;5119664;28;20020;-69
2023/02/28 01:43:41;;;;;;;6.18;2.28;;;;;;;-143.48;75.46;118439.88;5101153;28;20019;-69
2023/02/28 01:46:07;;;;;;;5.78;2.10;;;;;;;-143.48;75.08;118439.88;5118807;28;20019;-70
2023/02/28 01:48:37;;;;;;;6.53;2.40;;;;;;;-143.48;75.12;118439.88;5119176;28;20367;-70
2023/02/28 01:51:09;;;;;;;7.82;2.63;;;;;;;-143.48;75.33;118439.88;5118359;28;20015;-70
2023/02/28 01:53:41;;;;;;;6.75;2.50;;;;;;;-143.48;75.79;118439.88;5099526;28;20072;-70
2023/02/28 01:56:11;;;;;;;4.90;2.30;;;;;;;-143.48;74.11;118439.88;5117898;28;20046;-69
2023/02/28 01:58:37;;;;;;;5.95;2.50;;;;;;;-143.48;74.85;118439.88;5117694;28;20023;-70
2023/02/28 02:01:02;;;;;;;5.43;2.20;;;;;;;-143.48;75.70;118439.88;5117407;28;20020;-71
2023/02/28 02:03:29;;;;;;;2.92;2.05;;;;;;;-143.48;76.07;118439.88;5117516;28;20070;-70
2023/02/28 02:05:54;;;;;;;4.50;2.00;;;;;;;-143.48;75.27;118439.88;5117479;28;20555;-70
2023/02/28 02:08:24;;;;;;;4.45;2.10;;;;;;;-143.48;75.70;118439.88;5099079;28;20111;-70
2023/02/28 02:10:59;;;;;;;10.65;2.50;;;;;;;-143.48;75.65;118439.88;5117244;28;20363;-70
2023/02/28 02:13:55;;;;;;;6.10;2.20;;;;;;;-143.48;76.12;118439.88;5117229;28;20026;-70
2023/02/28 02:16:29;;;;;;;5.05;2.35;;;;;;;-143.48;75.83;118439.88;5098189;28;20040;-70
2023/02/28 02:19:02;;;;;;;8.05;2.30;;;;;;;-143.48;76.20;118439.88;5116949;28;20475;-70
2023/02/28 02:21:33;;;;;;;;;;;;;;;-143.48;75.64;118439.88;5117404;28;20024;-71
2023/02/28 02:24:32;;;;;;;4.47;2.10;;;;;;;-143.48;75.79;118439.88;5098646;28;20006;-69
2023/02/28 02:27:16;;;;;;;5.82;2.30;;;;;;;-143.48;75.45;118439.88;5117195;28;20023;-70
2023/02/28 02:29:43;;;;;;;7.72;2.80;;;;;;;-143.48;75.69;118439.88;5116875;28;20028;-70
2023/02/28 02:32:28;;;;;;;6.20;2.50;;;;;;;-143.48;76.09;118439.88;5116785;28;20035;-71
2023/02/28 02:35:11;;;;;;;8.10;2.80;;;;;;;-143.48;76.65;118439.88;5116745;28;20020;-71
2023/02/28 02:37:42;;;;;;;6.57;2.40;;;;;;;-143.48;76.19;118439.88;5115565;28;20110;-71
2023/02/28 02:40:12;;;;;;;4.80;2.38;;;;;;;-143.48;76.21;118439.88;5115397;28;20035;-71
2023/02/28 02:43:13;;;;;;;7.05;2.58;;;;;;;-143.48;77.35;118439.88;5117302;28;20073;-71
2023/02/28 02:45:53;;;;;;;9.50;2.60;;;;;;;-143.48;77.51;118439.88;5116678;28;20031;-70
2023/02/28 02:48:21;;;;;;;5.50;2.60;;;;;;;-143.48;76.72;118439.88;5116776;28;20374;-70
2023/02/28 02:50:50;;;;;;;4.60;2.40;;;;;;;-143.48;77.61;118439.88;5116199;28;20406;-70
2023/02/28 02:53:19;;;;;;;8.73;2.63;;;;;;;-143.48;77.34;118439.88;5116322;28;20065;-70
2023/02/28 02:55:52;;;;;;;7.45;2.65;;;;;;;-143.48;77.35;118439.88;5116340;28;20106;-70
2023/02/28 02:58:24;;;;;;;5.28;2.63;;;;;;;-143.48;77.02;118439.88;5115028;28;20065;-70
2023/02/28 03:00:58;;;;;;;7.72;2.90;;;;;;;-143.48;77.52;118439.88;5116366;28;20513;-70
2023/02/28 03:03:29;;;;;;;7.15;2.70;;;;;;;-143.48;77.48;118439.88;5097890;28;20019;-71
2023/02/28 03:05:57;;;;;;;7.28;2.60;;;;;;;-143.48;78.01;118439.88;5116014;28;20043;-70
2023/02/28 03:08:22;;;;;;;8.25;2.65;;;;;;;-143.48;77.51;118439.88;5116044;28;20474;-70
2023/02/28 03:10:55;;;;;;;6.75;2.70;;;;;;;-143.48;77.47;118439.88;5116044;28;20055;-71
2023/02/28 03:13:37;;;;;;;7.32;2.90;;;;;;;-143.48;78.01;118439.88;5115982;28;20028;-70
2023/02/28 03:16:28;;;;;;;6.90;2.95;;;;;;;-143.48;78.46;118439.88;5114606;28;20023;-70
2023/02/28 03:19:23;;;;;;;5.15;2.65;;;;;;;-143.48;78.08;118439.88;5115634;28;20028;-69
2023/02/28 03:22:02;;;;;;;4.45;2.58;;;;;;;-143.48;78.02;118439.88;5056875;28;20083;-70
2023/02/28 03:25:00;;;;;;;8.25;3.17;;;;;;;-143.48;77.81;118439.88;5114982;28;20020;-70
2023/02/28 03:27:59;;;;;;;9.00;2.75;;;;;;;-143.48;77.82;118439.88;5113602;28;20466;-70
2023/02/28 03:30:32;;;;;;;4.90;2.70;;;;;;;-143.48;77.57;118439.88;5098236;28;20043;-72
2023/02/28 03:33:04;;;;;;;6.78;2.88;;;;;;;-143.48;77.70;118439.88;5095154;28;20028;-71
2023/02/28 03:35:39;;;;;;;6.15;3.00;;;;;;;-143.48;77.80;118439.88;5113993;28;20459;-70
2023/02/28 03:38:21;;;;;;;7.82;3.22;;;;;;;-143.48;77.02;118439.88;5095255;28;20513;-70
2023/02/28 03:40:51;;;;;;;7.10;3.17;;;;;;;-143.48;76.98;118439.88;5114937;28;20027;-70
2023/02/28 03:43:24;;;;;;;7.97;3.10;;;;;;;-143.48;76.42;118439.88;5115443;28;20016;-70
2023/02/28 03:45:51;;;;;;;7.32;3.17;;;;;;;-143.48;76.33;118439.88;5115308;28;20059;-70
2023/02/28 03:48:26;;;;;;;8.85;3.20;;;;;;;-143.48;77.15;118439.88;5115277;28;20531;-69
2023/02/28 03:50:55;;;;;;;7.32;3.03;;;;;;;-143.48;77.33;118439.88;5114381;28;20055;-70
2023/02/28 03:53:35;;;;;;;9.20;3.30;;;;;;;-143.48;76.52;118439.88;5116554;28;20090;-70
2023/02/28 03:56:12;;;;;;;5.25;2.97;;;;;;;-143.48;75.81;118439.88;5116500;28;20111;-70
2023/02/28 03:58:44;;;;;;;5.28;3.30;;;;;;;-143.48;76.29;118439.88;5114907;28;20031;-71
2023/02/28 04:01:20;;;;;;;8.13;4.00;;;;;;;-143.48;76.44;118439.88;5114776;28;20026;-71
2023/02/28 04:03:46;;;;;;;5.68;3.20;;;;;;;-143.48;76.93;118439.88;5117081;28;20033;-71
2023/02/28 04:06:23;;;;;;;6.88;2.97;;;;;;;-143.48;76.41;118439.88;5122400;28;20095;-71
2023/02/28 04:08:49;;;;;;;7.80;3.40;;;;;;;-143.48;78.56;118439.88;5122774;28;20490;-71
2023/02/28 04:11:40;;;;;;;6.55;3.40;;;;;;;-143.48;78.90;118439.88;5122785;28;20051;-71
2023/02/28 04:14:07;;;;;;;7.50;3.15;;;;;;;-143.48;77.58;118439.88;5121506;28;20023;-71
2023/02/28 04:16:35;;;;;;;9.55;3.95;;;;;;;-143.48;78.20;118439.88;5122128;28;20057;-70
2023/02/28 04:19:04;;;;;;;8.80;3.75;;;;;;;-143.48;78.76;118439.88;5121470;28;20062;-71
2023/02/28 04:21:41;;;;;;;10.38;4.10;;;;;;;-143.48;78.72;118439.88;5117467;28;20098;-71
2023/02/28 04:24:08;;;;;;;11.07;3.90;;;;;;;-143.48;79.28;118439.88;5097364;28;20051;-71
2023/02/28 04:26:36;;;;;;;13.60;4.47;;;;;;;-143.48;79.32;118439.88;5113659;28;20031;-71
2023/02/28 04:29:04;;;;;;;10.70;3.75;;;;;;;-143.48;79.57;118439.88;5096577;28;20020;-71
2023/02/28 04:31:29;;;;;;;23.60;4.15;;;;;;;-143.48;79.97;118439.88;5114487;28;20030;-70
2023/02/28 04:33:55;;;;;;;6.75;3.97;;;;;;;-143.48;79.19;118439.88;5114716;28;20484;-71
2023/02/28 04:36:20;;;;;;;9.05;4.05;;;;;;;-143.48;80.07;118439.88;5113400;28;20028;-71
2023/02/28 04:38:46;;;;;;;7.68;3.90;;;;;;;-143.48;80.84;118439.88;5114738;28;20023;-72
2023/02/28 04:41:12;;;;;;;9.70;3.97;;;;;;;-143.48;80.30;118439.88;5113080;28;20023;-71
2023/02/28 04:43:38;;;;;;;9.25;4.40;;;;;;;-143.48;80.83;118439.88;5096115;28;20030;-71
2023/02/28 04:46:05;;;;;;;10.57;4.57;;;;;;;-143.48;81.60;118439.88;5114175;28;20027;-71
2023/02/28 04:48:33;;;;;;;9.65;4.38;;;;;;;-143.48;80.59;118439.88;5114010;28;20054;-71
2023/02/28 04:51:08;;;;;;;6.95;4.53;;;;;;;-143.48;79.52;118439.88;5114014;28;20474;-71
2023/02/28 04:53:34;;;;;;;12.65;5.72;;;;;;;-143.48;78.44;118439.88;5114075;28;20027;-71
2023/02/28 04:56:00;;;;;;;9.18;5.43;;;;;;;-143.48;78.25;118439.88;5113918;28;20034;-72
2023/02/28 04:58:26;;;;;;;11.02;5.80;;;;;;;-143.48;77.94;118439.88;5114027;28;20023;-71
2023/02/28 05:00:52;;;;;;;11.30;6.30;;;;;;;-143.48;76.67;118439.88;5113439;28;20020;-71
2023/02/28 05:03:17;;;;;;;14.40;6.30;;;;;;;-143.48;77.53;118439.88;5114230;28;20080;-70
2023/02/28 05:05:43;;;;;;;11.02;6.32;;;;;;;-143.48;77.74;118439.88;5095619;28;20402;-70
2023/02/28 05:08:09;;;;;;;13.88;6.63;;;;;;;-143.48;77.53;118439.88;5095817;28;20028;-70
2023/02/28 05:10:34;;;;;;;13.38;6.80;;;;;;;-143.48;78.26;118439.88;5095649;28;20019;-70
2023/02/28 05:12:59;;;;;;;11.75;6.35;;;;;;;-143.48;78.59;118439.88;5095672;28;20024;-71
2023/02/28 05:15:25;;;;;;;11.00;5.90;;;;;;;-143.48;79.27;118439.88;5095740;28;20019;-70
2023/02/28 05:17:50;;;;;;;8.82;5.28;;;;;;;-143.48;78.79;118439.88;5114004;28;20023;-71
2023/02/28 05:20:16;;;;;;;9.65;5.13;;;;;;;-143.48;77.49;118439.88;5113873;28;20034;-71
2023/02/28 05:22:42;;;;;;;10.52;5.40;;;;;;;-143.48;76.52;118439.88;5113832;28;20449;-71
2023/02/28 05:25:12;;;;;;;15.32;5.20;;;;;;;-143.48;75.76;118439.88;5112529;28;20027;-72
2023/02/28 05:27:37;;;;;;;10.18;4.38;;;;;;;-143.48;74.28;118439.88;5095437;28;20073;-70
2023/02/28 05:30:04;;;;;;;7.95;3.80;;;;;;;-143.48;73.09;118439.88;5113612;28;20015;-71
2023/02/28 05:32:29;;;;;;;6.55;3.92;;;;;;;-143.48;71.01;118439.88;5113778;28;20023;-71
2023/02/28 05:34:54;;;;;;;6.55;3.53;;;;;;;-143.48;69.80;118439.88;5113770;28;20379;-70
2023/02/28 05:37:20;;;;;;;6.40;3.25;;;;;;;-143.48;70.13;118439.88;5113698;28;20467;-72
2023/02/28 05:39:46;;;;;;;5.55;3.17;;;;;;;-143.48;69.07;118439.88;5113623;28;20019;-71
2023/02/28 05:42:11;;;;;;;6.65;3.17;;;;;;;-143.48;68.53;118439.88;5113619;28;20505;-72
2023/02/28 05:44:36;;;;;;;7.47;3.40;;;;;;;-143.48;68.10;118439.88;5113491;28;20425;-71
2023/02/28 05:47:02;;;;;;;11.27;3.40;;;;;;;-143.48;68.93;118439.88;5113763;28;20057;-70
2023/02/28 05:49:27;;;;;;;5.20;2.90;;;;;;;-143.48;67.83;118439.88;5113582;28;20024;-70
2023/02/28 05:51:52;;;;;;;5.53;2.97;;;;;;;-143.48;67.63;118439.88;5113410;28;20463;-71
2023/02/28 05:54:18;;;;;;;4.28;2.70;;;;;;;-143.48;67.16;118439.88;5113623;28;20019;-71
2023/02/28 05:56:45;;;;;;;5.03;2.80;;;;;;;-143.48;66.75;118439.88;5095218;28;20019;-71
2023/02/28 05:59:13;;;;;;;5.20;2.97;;;;;;;-143.48;66.13;118439.88;5113419;28;20023;-71
2023/02/28 06:01:47;;;;;;;5.65;2.65;;;;;;;-143.48;66.91;118439.88;5113764;28;20023;-71
2023/02/28 06:04:17;;;;;;;5.53;2.83;;;;;;;-143.48;66.48;118439.88;5113638;28;20028;-71
2023/02/28 06:06:44;;;;;;;4.53;2.90;;;;;;;-143.48;66.60;118439.88;5113584;28;20036;-71
2023/02/28 06:09:10;;;;;;;5.03;2.88;;;;;;;-143.48;66.97;118439.88;5113275;28;20047;-71
2023/02/28 06:11:36;;;;;;;5.82;3.38;;;;;;;-143.48;67.13;118439.88;5114169;28;20083;-71
2023/02/28 06:14:03;;;;;;;4.38;3.00;;;;;;;-143.48;68.97;118439.88;5099052;28;20023;-71
2023/02/28 06:16:29;;;;;;;5.10;3.10;;;;;;;-143.48;70.89;118439.88;5099944;28;20024;-71
2023/02/28 06:18:57;;;;;;;9.27;3.30;;;;;;;-143.48;71.88;118439.88;5099288;28;20367;-71
2023/02/28 06:21:22;;;;;;;9.35;3.40;;;;;;;-143.48;73.64;118439.88;5115723;28;20020;-71
2023/02/28 06:23:48;;;;;;;5.55;3.28;;;;;;;-143.48;76.32;118439.88;5119480;28;20031;-70
2023/02/28 06:26:13;;;;;;;9.48;3.53;;;;;;;-143.48;77.96;118439.88;5118033;28;20024;-70
2023/02/28 06:28:39;;;;;;;7.13;3.47;;;;;;;-143.48;79.64;118439.88;5116911;28;20533;-71
2023/02/28 06:31:13;;;;;;;6.40;3.45;;;;;;;-143.48;80.87;118439.88;5120187;28;20028;-71
2023/02/28 06:33:39;;;;;;;5.75;3.38;;;;;;;-143.48;82.16;118439.88;5099668;28;20058;-71
2023/02/28 06:36:06;;;;;;;7.18;3.97;;;;;;;-143.48;83.34;118439.88;5116865;28;20051;-71
2023/02/28 06:38:33;;;;;;;9.75;4.03;;;;;;;-143.48;84.97;118439.88;5116584;28;20027;-71
2023/02/28 06:40:59;;;;;;;7.00;3.90;;;;;;;-143.48;85.93;118439.88;5116614;28;20394;-71
2023/02/28 06:43:28;;;;;;;8.30;4.38;;;;;;;-143.48;86.17;118439.88;5116726;28;20451;-71
2023/02/28 06:45:58;;;;;;;6.25;3.67;;;;;;;-143.48;86.83;118439.88;5098218;28;20019;-71
2023/02/28 06:48:24;;;;;;;7.03;4.10;;;;;;;-143.48;87.52;118439.88;5116501;28;20024;-71
2023/02/28 06:50:49;;;;;;;7.53;3.78;;;;;;;-143.48;88.64;118439.88;5116391;28;20023;-71
2023/02/28 06:53:14;;;;;;;10.60;4.30;;;;;;;-143.48;89.40;118439.88;5117785;28;20030;-72
2023/02/28 06:55:40;;;;;;;6.97;4.25;;;;;;;-143.48;89.31;118439.88;5134814;28;20012;-72
2023/02/28 06:58:14;;;;;;;7.25;4.30;;;;;;;-143.48;89.36;118439.88;5099285;28;20387;-71
2023/02/28 07:00:44;;;;;;;6.22;3.85;;;;;;;-143.48;89.39;118439.88;5107567;28;20016;-71
2023/02/28 07:03:11;;;;;;;12.80;4.25;;;;;;;-143.48;89.60;118439.88;5124407;28;20035;-71
2023/02/28 07:05:37;;;;;;;9.10;4.55;;;;;;;-143.48;90.74;118439.88;5119725;28;20108;-71
2023/02/28 07:08:03;;;;;;;6.68;4.10;;;;;;;-143.48;89.99;118439.88;5116407;28;20046;-71
2023/02/28 07:10:29;;;;;;;8.18;4.60;;;;;;;-143.48;91.21;118439.88;5116115;28;20024;-71
2023/02/28 07:12:55;;;;;;;7.47;4.47;;;;;;;-143.48;90.61;118439.88;5115711;28;20479;-71
2023/02/28 07:15:20;;;;;;;9.18;4.50;;;;;;;-143.48;90.66;118439.88;5113668;28;20035;-71
2023/02/28 07:17:45;;;;;;;7.85;4.80;;;;;;;-143.48;91.31;118439.88;5102104;28;20027;-71
2023/02/28 07:20:11;;;;;;;10.30;4.75;;;;;;;-143.48;91.06;118439.88;5115621;28;20420;-71
2023/02/28 07:22:37;;;;;;;8.27;4.25;;;;;;;-143.48;91.38;118439.88;5114958;28;20437;-70
2023/02/28 07:25:02;;;;;;;12.30;5.20;;;;;;;-143.48;91.36;118439.88;5114934;28;20076;-71
2023/02/28 07:27:27;;;;;;;9.48;5.07;;;;;;;-143.48;91.05;118439.88;5096909;28;20023;-70
2023/02/28 07:29:54;;;;;;;7.47;4.68;;;;;;;-143.48;91.07;118439.88;5115310;28;20038;-71
2023/02/28 07:32:20;;;;;;;7.25;4.90;;;;;;;-143.48;91.18;118439.88;5097413;28;20020;-71
2023/02/28 07:34:45;;;;;;;9.02;4.55;;;;;;;-143.48;91.39;118439.88;5114782;28;20019;-70
2023/02/28 07:37:11;;;;;;;11.18;4.88;;;;;;;-143.48;90.71;118439.88;5115910;28;20466;-72
2023/02/28 07:39:36;;;;;;;12.82;4.70;;;;;;;-143.48;90.82;118439.88;5115778;28;20028;-70
2023/02/28 07:42:06;;;;;;;8.40;4.50;;;;;;;-143.48;90.56;118439.88;5115976;28;20352;-70
2023/02/28 07:44:31;;;;;;;8.75;4.60;;;;;;;-143.48;90.71;118439.88;5116413;28;20015;-72
2023/02/28 07:46:57;;;;;;;7.00;4.72;;;;;;;-143.48;90.66;118439.88;5116265;28;20436;-70
2023/02/28 07:49:22;;;;;;;9.38;4.85;;;;;;;-143.48;90.93;118439.88;5126429;28;20019;-71
2023/02/28 07:51:48;;;;;;;9.10;5.15;;;;;;;-143.48;91.03;118439.88;5098180;28;20538;-70
2023/02/28 07:54:13;;;;;;;8.27;4.60;;;;;;;-143.48;90.36;118439.88;5128373;28;20016;-70
2023/02/28 07:56:38;;;;;;;9.65;4.40;;;;;;;-143.48;90.97;118439.88;5119347;28;20035;-71
2023/02/28 07:59:03;;;;;;;8.07;4.50;;;;;;;-143.48;90.78;118439.88;5127206;28;20035;-71
2023/02/28 08:01:29;;;;;;;8.20;4.72;;;;;;;-143.48;91.43;118439.88;5115170;28;20095;-71
2023/02/28 08:03:56;;;;;;;7.97;4.40;;;;;;;-143.48;90.81;118439.88;5115213;28;20107;-71
2023/02/28 08:06:26;;;;;;;8.52;4.75;;;;;;;-143.48;90.96;118439.88;5127670;28;20073;-70
2023/02/28 08:08:52;;;;;;;8.30;4.28;;;;;;;-143.48;90.59;118439.88;5129460;28;20016;-71
2023/02/28 08:11:18;;;;;;;7.22;4.53;;;;;;;-143.48;90.56;118439.88;5116856;28;20051;-70
2023/02/28 08:13:45;;;;;;;7.43;4.70;;;;;;;-143.48;90.88;118439.88;5106609;28;20016;-69
2023/02/28 08:16:14;;;;;;;7.07;4.20;;;;;;;-143.48;90.56;118439.88;5115767;28;20106;-70
2023/02/28 08:18:39;;;;;;;10.93;4.22;;;;;;;-143.48;90.68;118439.88;5114240;28;20540;-70
2023/02/28 08:21:11;;;;;;;7.70;4.30;;;;;;;-143.48;90.66;118439.88;5115253;28;20035;-71
2023/02/28 08:23:37;;;;;;;8.15;4.55;;;;;;;-143.48;90.44;118439.88;5115635;28;20023;-72
2023/02/28 08:26:04;;;;;;;7.10;4.50;;;;;;;-143.48;90.84;118439.88;5138304;28;20014;-72
2023/02/28 08:28:29;;;;;;;9.13;5.10;;;;;;;-143.48;90.06;118439.88;5126587;28;20045;-70
2023/02/28 08:30:55;;;;;;;11.20;4.85;;;;;;;-143.48;90.94;118439.88;5097191;28;20023;-70
2023/02/28 08:33:27;;;;;;;7.80;4.88;;;;;;;-143.48;90.71;118439.88;5123848;28;20050;-70
2023/02/28 08:35:54;;;;;;;8.57;4.43;;;;;;;-143.48;90.34;118439.88;5136487;28;20018;-70
2023/02/28 08:38:20;;;;;;;9.27;4.78;;;;;;;-143.48;90.92;118439.88;5107810;28;20035;-71
2023/02/28 08:40:45;;;;;;;9.05;4.75;;;;;;;-143.48;91.10;118439.88;5136529;28;20024;-71
2023/02/28 08:43:10;;;;;;;8.05;5.15;;;;;;;-143.48;90.25;118439.88;5111054;28;20030;-69
2023/02/28 08:45:36;;;;;;;9.30;5.15;;;;;;;-143.48;90.46;118439.88;5137118;28;20057;-70
2023/02/28 08:48:05;;;;;;;7.82;4.63;;;;;;;-143.48;90.02;118439.88;5135511;28;20023;-71
2023/02/28 08:50:30;;;;;;;8.55;5.20;;;;;;;-143.48;89.95;118439.88;5120006;28;20026;-71
2023/02/28 08:52:59;;;;;;;9.35;4.63;;;;;;;-143.48;88.17;118439.88;5119064;28;20095;-70
2023/02/28 08:55:28;;;;;;;8.95;4.47;;;;;;;-143.48;87.93;118439.88;5138031;28;20028;-71
2023/02/28 08:57:54;;;;;;;8.45;4.70;;;;;;;-143.48;85.50;118439.88;5133365;28;20024;-71
2023/02/28 09:00:20;;;;;;;12.27;4.70;;;;;;;-143.48;87.54;118439.88;5137768;28;20096;-71
2023/02/28 09:02:46;;;;;;;6.55;4.80;;;;;;;-143.48;87.23;118439.88;5137075;28;20031;-71
2023/02/28 09:05:11;;;;;;;7.53;4.50;;;;;;;-143.48;87.63;118439.88;5136413;28;20031;-72
2023/02/28 09:07:37;;;;;;;10.95;4.47;;;;;;;-143.48;86.32;118439.88;5137810;28;20023;-71
2023/02/28 09:10:02;;;;;;;8.02;3.70;;;;;;;-143.48;84.40;118439.88;5118549;22;20052;-34
2023/02/28 09:12:34;;;;;;;11.18;3.67;;;;;;;-143.48;83.88;118439.88;5114069;28;20024;-35
2023/02/28 09:14:59;;;;;;;6.45;3.90;;;;;;;-143.48;83.36;118439.88;5114103;28;20121;-35
2023/02/28 09:17:24;;;;;;;8.07;3.80;;;;;;;-143.48;83.96;118439.88;5113691;28;20020;-34
2023/02/28 09:19:50;;;;;;;6.35;3.60;;;;;;;-143.48;83.42;118439.88;5114190;28;20027;-34
2023/02/28 09:22:15;;;;;;;9.10;3.97;;;;;;;-143.48;83.91;118439.88;5113676;28;20416;-35
2023/02/28 09:24:41;;;;;;;6.63;3.83;;;;;;;-143.48;81.46;118439.88;5114044;28;20024;-35
2023/02/28 09:27:06;;;;;;;8.27;4.13;;;;;;;-143.48;81.08;118439.88;5113765;28;20028;-35
2023/02/28 09:29:33;;;;;;;7.38;3.28;;;;;;;-143.48;77.69;118439.88;5113593;28;20031;-35
2023/02/28 09:31:59;;;;;;;6.88;3.80;;;;;;;-143.48;77.41;118439.88;5114136;28;20023;-35
2023/02/28 09:34:26;;;;;;;8.57;3.95;;;;;;;-143.48;78.82;118439.88;5113960;28;20042;-35
2023/02/28 09:36:54;;;;;;;5.78;3.30;;;;;;;-143.48;72.48;118439.88;5113727;28;20098;-35
2023/02/28 09:39:21;;;;;;;6.32;3.22;;;;;;;-143.48;73.13;118439.88;5114465;28;20020;-35
2023/02/28 09:41:50;;;;;;;6.45;3.17;;;;;;;-143.48;68.10;118439.88;5113403;28;20030;-36
2023/02/28 09:44:26;;;;;;;5.95;3.30;;;;;;;-143.48;67.60;118439.88;5113569;28;20110;-35
2023/02/28 09:46:59;;;;;;;5.88;3.20;;;;;;;-143.48;66.58;118439.88;5115511;28;20446;-35
2023/02/28 09:49:31;;;;;;;6.18;3.55;;;;;;;-143.48;68.52;118439.88;5117842;28;20116;-35
2023/02/28 09:52:01;;;;;;;5.80;3.03;;;;;;;-143.48;67.83;118439.88;5117165;28;20035;-36
2023/02/28 09:54:29;;;;;;;6.05;3.10;;;;;;;-143.48;62.29;118439.88;5118084;28;20031;-35
2023/02/28 09:56:58;;;;;;;7.55;3.00;;;;;;;-143.48;62.05;118439.88;5117364;28;20020;-35
2023/02/28 09:59:29;;;;;;;5.18;3.20;;;;;;;-143.48;58.01;118439.88;5117311;28;20034;-35
2023/02/28 10:02:18;;;;;;;5.95;3.20;;;;;;;-143.48;61.87;118439.88;5117480;28;20434;-35
2023/02/28 10:04:51;;;;;;;5.22;2.95;;;;;;;-143.48;60.83;118439.88;5117026;28;20070;-35
2023/02/28 10:07:31;;;;;;;5.75;3.15;;;;;;;-143.48;60.14;118439.88;5117672;28;20097;-35
2023/02/28 10:10:02;;;;;;;5.72;3.10;;;;;;;-143.48;60.53;118439.88;5117245;28;20101;-35
2023/02/28 10:12:29;;;;;;;5.80;3.20;;;;;;;-143.48;60.35;118439.88;5116878;28;20032;-35
2023/02/28 10:14:59;;;;;;;5.13;2.90;;;;;;;-143.48;60.29;118439.88;5116976;28;20449;-35
2023/02/28 10:17:32;;;;;;;4.32;2.90;;;;;;;-143.48;59.07;118439.88;5117184;28;20023;-35
2023/02/28 10:20:29;;;;;;;5.47;3.13;;;;;;;-143.48;56.45;118439.88;5117249;28;20016;-36
2023/02/28 10:23:07;;;;;;;4.78;3.10;;;;;;;-143.48;56.35;118439.88;5095545;28;20058;-35
2023/02/28 10:25:34;;;;;;;8.43;3.17;;;;;;;-143.48;57.28;118439.88;5114884;28;20462;-35
2023/02/28 10:28:09;;;;;;;4.90;2.72;;;;;;;-143.48;54.85;118439.88;5114608;28;20073;-34
2023/02/28 10:30:39;;;;;;;5.80;2.90;;;;;;;-143.48;54.49;118439.88;5114509;28;20410;-35
2023/02/28 10:33:04;;;;;;;4.38;2.80;;;;;;;-143.48;55.99;118439.88;5114518;28;20470;-34
2023/02/28 10:35:29;;;;;;;6.13;3.00;;;;;;;-143.48;54.62;118439.88;5096089;28;20125;-34
2023/02/28 10:38:05;;;;;;;5.70;2.80;;;;;;;-143.48;54.27;118439.88;5114502;28;20031;-35
2023/02/28 10:40:37;;;;;;;7.45;3.30;;;;;;;-143.48;53.78;118439.88;5114470;28;20374;-35
2023/02/28 10:43:24;;;;;;;5.35;2.92;;;;;;;-143.48;52.58;118439.88;5116411;28;20016;-35
2023/02/28 10:46:15;;;;;;;4.75;2.47;;;;;;;-143.48;49.07;118439.88;5116076;28;20032;-35
2023/02/28 10:49:13;;;;;;;4.60;2.53;;;;;;;-143.48;50.00;118439.88;5106509;28;20435;-35
2023/02/28 10:51:41;;;;;;;3.17;1.92;;;;;;;-143.48;43.74;118439.88;5115968;28;20019;-35
2023/02/28 10:54:16;;;;;;;3.65;2.25;;;;;;;-143.48;42.74;118439.88;5116300;28;20061;-35
2023/02/28 10:56:41;;;;;;;3.72;2.08;;;;;;;-143.48;41.00;118439.88;5116202;28;20024;-35
2023/02/28 10:59:30;;;;;;;3.05;2.05;;;;;;;-143.48;41.72;118439.88;5115376;28;20029;-35
2023/02/28 11:01:57;;;;;;;3.70;2.05;;;;;;;-143.48;39.88;118439.88;5116360;28;20032;-34
2023/02/28 11:04:22;;;;;;;3.72;1.90;;;;;;;-143.48;39.22;118439.88;5114664;28;20027;-34
2023/02/28 11:06:57;;;;;;;4.88;2.00;;;;;;;-143.48;38.43;118439.88;5116265;28;20116;-34
2023/02/28 11:09:35;;;;;;;3.22;2.10;;;;;;;-143.48;39.83;118439.88;5115692;28;20070;-34
2023/02/28 11:12:04;;;;;;;5.40;2.10;;;;;;;-143.48;41.12;118439.88;5112782;28;20020;-34
2023/02/28 11:14:39;;;;;;;5.35;2.17;;;;;;;-143.48;39.48;118439.88;5114125;28;20028;-34
2023/02/28 11:17:34;;;;;;;5.50;2.28;;;;;;;-143.48;39.09;118439.88;5113972;28;20020;-35
2023/02/28 11:20:04;;;;;;;3.00;1.90;;;;;;;-143.48;38.07;118439.88;5095684;28;20043;-34